sensor_id;sensor_type;location;lat;lon;timestamp;P1;durP1;ratioP1;P2;durP2;ratioP2
28988;SDS011;16089;59.952;10.818;2023-05-24T00:02:05;3.70;;;1.20;;
28988;SDS011;16089;59.952;10.818;2023-05-24T00:04:31;2.40;;;1.10;;
28988;SDS011;16089;59.952;10.818;2023-05-24T00:06:58;2.88;;;1.02;;
28988;SDS011;16089;59.952;10.818;2023-05-24T00:09:27;2.03;;;1.00;;
28988;SDS011;16089;59.952;10.818;2023-05-24T00:11:57;3.58;;;1.02;;
28988;SDS011;16089;59.952;10.818;2023-05-24T00:14:23;1.88;;;1.00;;
28988;SDS011;16089;59.952;10.818;2023-05-24T00:16:51;1.80;;;1.05;;
28988;SDS011;16089;59.952;10.818;2023-05-24T00:19:17;4.72;;;1.30;;
28988;SDS011;16089;59.952;10.818;2023-05-24T00:21:46;2.30;;;1.08;;
28988;SDS011;16089;59.952;10.818;2023-05-24T00:24:13;1.85;;;1.08;;
28988;SDS011;16089;59.952;10.818;2023-05-24T00:26:41;3.08;;;1.00;;
28988;SDS011;16089;59.952;10.818;2023-05-24T00:29:07;2.05;;;0.95;;
28988;SDS011;16089;59.952;10.818;2023-05-24T00:31:33;5.25;;;1.00;;
28988;SDS011;16089;59.952;10.818;2023-05-24T00:34:01;2.50;;;1.30;;
28988;SDS011;16089;59.952;10.818;2023-05-24T00:36:27;2.78;;;1.27;;
28988;SDS011;16089;59.952;10.818;2023-05-24T00:38:54;2.40;;;0.98;;
28988;SDS011;16089;59.952;10.818;2023-05-24T00:41:20;2.40;;;1.30;;
28988;SDS011;16089;59.952;10.818;2023-05-24T00:43:46;2.75;;;0.93;;
28988;SDS011;16089;59.952;10.818;2023-05-24T00:46:16;2.80;;;1.00;;
28988;SDS011;16089;59.952;10.818;2023-05-24T00:48:44;1.52;;;0.90;;
28988;SDS011;16089;59.952;10.818;2023-05-24T00:51:12;2.10;;;1.00;;
28988;SDS011;16089;59.952;10.818;2023-05-24T00:53:39;2.13;;;0.93;;
28988;SDS011;16089;59.952;10.818;2023-05-24T00:56:06;3.20;;;1.08;;
28988;SDS011;16089;59.952;10.818;2023-05-24T00:58:33;3.67;;;1.08;;
28988;SDS011;16089;59.952;10.818;2023-05-24T01:01:00;2.22;;;1.10;;
28988;SDS011;16089;59.952;10.818;2023-05-24T01:03:27;2.80;;;1.15;;
28988;SDS011;16089;59.952;10.818;2023-05-24T01:05:54;2.20;;;1.10;;
28988;SDS011;16089;59.952;10.818;2023-05-24T01:08:24;2.50;;;1.27;;
28988;SDS011;16089;59.952;10.818;2023-05-24T01:10:56;2.67;;;1.00;;
28988;SDS011;16089;59.952;10.818;2023-05-24T01:13:26;3.65;;;1.25;;
28988;SDS011;16089;59.952;10.818;2023-05-24T01:15:54;1.75;;;0.90;;
28988;SDS011;16089;59.952;10.818;2023-05-24T01:18:25;2.97;;;0.95;;
28988;SDS011;16089;59.952;10.818;2023-05-24T01:20:57;3.90;;;1.02;;
28988;SDS011;16089;59.952;10.818;2023-05-24T01:23:31;2.70;;;1.10;;
28988;SDS011;16089;59.952;10.818;2023-05-24T01:26:07;2.22;;;1.10;;
28988;SDS011;16089;59.952;10.818;2023-05-24T01:28:39;2.15;;;1.10;;
28988;SDS011;16089;59.952;10.818;2023-05-24T01:31:07;1.65;;;0.90;;
28988;SDS011;16089;59.952;10.818;2023-05-24T01:33:34;1.73;;;0.90;;
28988;SDS011;16089;59.952;10.818;2023-05-24T01:36:00;2.03;;;1.00;;
28988;SDS011;16089;59.952;10.818;2023-05-24T01:38:26;2.38;;;1.10;;
28988;SDS011;16089;59.952;10.818;2023-05-24T01:40:55;1.73;;;0.77;;
28988;SDS011;16089;59.952;10.818;2023-05-24T01:43:26;3.25;;;0.88;;
28988;SDS011;16089;59.952;10.818;2023-05-24T01:45:59;2.85;;;0.88;;
28988;SDS011;16089;59.952;10.818;2023-05-24T01:48:30;1.75;;;0.88;;
28988;SDS011;16089;59.952;10.818;2023-05-24T01:50:59;2.50;;;1.00;;
28988;SDS011;16089;59.952;10.818;2023-05-24T01:53:31;2.13;;;1.00;;
28988;SDS011;16089;59.952;10.818;2023-05-24T01:55:59;1.95;;;1.05;;
28988;SDS011;16089;59.952;10.818;2023-05-24T01:58:26;1.60;;;0.80;;
28988;SDS011;16089;59.952;10.818;2023-05-24T02:00:53;2.10;;;1.08;;
28988;SDS011;16089;59.952;10.818;2023-05-24T02:03:21;2.05;;;1.00;;
28988;SDS011;16089;59.952;10.818;2023-05-24T02:05:48;2.13;;;0.95;;
28988;SDS011;16089;59.952;10.818;2023-05-24T02:08:14;2.38;;;1.00;;
28988;SDS011;16089;59.952;10.818;2023-05-24T02:10:40;1.85;;;1.00;;
28988;SDS011;16089;59.952;10.818;2023-05-24T02:13:07;2.70;;;1.10;;
28988;SDS011;16089;59.952;10.818;2023-05-24T02:15:33;2.30;;;1.00;;
28988;SDS011;16089;59.952;10.818;2023-05-24T02:18:02;2.83;;;1.05;;
28988;SDS011;16089;59.952;10.818;2023-05-24T02:20:33;2.28;;;1.15;;
28988;SDS011;16089;59.952;10.818;2023-05-24T02:23:01;1.67;;;0.90;;
28988;SDS011;16089;59.952;10.818;2023-05-24T02:25:27;2.33;;;1.15;;
28988;SDS011;16089;59.952;10.818;2023-05-24T02:27:54;1.88;;;0.95;;
28988;SDS011;16089;59.952;10.818;2023-05-24T02:30:20;1.73;;;1.02;;
28988;SDS011;16089;59.952;10.818;2023-05-24T02:32:46;1.88;;;1.00;;
28988;SDS011;16089;59.952;10.818;2023-05-24T02:35:13;2.85;;;1.20;;
28988;SDS011;16089;59.952;10.818;2023-05-24T02:37:40;1.45;;;0.80;;
28988;SDS011;16089;59.952;10.818;2023-05-24T02:40:07;2.00;;;0.90;;
28988;SDS011;16089;59.952;10.818;2023-05-24T02:42:34;1.80;;;0.90;;
28988;SDS011;16089;59.952;10.818;2023-05-24T02:45:00;2.72;;;1.00;;
28988;SDS011;16089;59.952;10.818;2023-05-24T02:47:26;2.33;;;0.75;;
28988;SDS011;16089;59.952;10.818;2023-05-24T02:49:53;2.17;;;1.00;;
28988;SDS011;16089;59.952;10.818;2023-05-24T02:52:19;1.92;;;0.90;;
28988;SDS011;16089;59.952;10.818;2023-05-24T02:54:48;1.95;;;0.98;;
28988;SDS011;16089;59.952;10.818;2023-05-24T02:57:15;7.45;;;1.20;;
28988;SDS011;16089;59.952;10.818;2023-05-24T02:59:42;1.70;;;0.98;;
28988;SDS011;16089;59.952;10.818;2023-05-24T03:02:08;1.23;;;0.80;;
28988;SDS011;16089;59.952;10.818;2023-05-24T03:04:37;2.42;;;0.98;;
28988;SDS011;16089;59.952;10.818;2023-05-24T03:07:04;2.58;;;0.95;;
28988;SDS011;16089;59.952;10.818;2023-05-24T03:09:30;1.50;;;0.73;;
28988;SDS011;16089;59.952;10.818;2023-05-24T03:11:58;2.28;;;0.90;;
28988;SDS011;16089;59.952;10.818;2023-05-24T03:14:24;2.25;;;0.88;;
28988;SDS011;16089;59.952;10.818;2023-05-24T03:16:50;2.13;;;0.93;;
28988;SDS011;16089;59.952;10.818;2023-05-24T03:19:17;1.73;;;0.90;;
28988;SDS011;16089;59.952;10.818;2023-05-24T03:21:43;2.05;;;0.95;;
28988;SDS011;16089;59.952;10.818;2023-05-24T03:24:10;1.48;;;0.80;;
28988;SDS011;16089;59.952;10.818;2023-05-24T03:26:37;3.10;;;0.90;;
28988;SDS011;16089;59.952;10.818;2023-05-24T03:29:04;2.08;;;1.00;;
28988;SDS011;16089;59.952;10.818;2023-05-24T03:31:31;2.35;;;1.05;;
28988;SDS011;16089;59.952;10.818;2023-05-24T03:33:57;3.28;;;0.80;;
28988;SDS011;16089;59.952;10.818;2023-05-24T03:36:23;2.53;;;1.00;;
28988;SDS011;16089;59.952;10.818;2023-05-24T03:38:52;1.73;;;1.08;;
28988;SDS011;16089;59.952;10.818;2023-05-24T03:41:20;2.30;;;0.88;;
28988;SDS011;16089;59.952;10.818;2023-05-24T03:43:46;2.45;;;1.00;;
28988;SDS011;16089;59.952;10.818;2023-05-24T03:46:14;4.50;;;0.90;;
28988;SDS011;16089;59.952;10.818;2023-05-24T03:48:40;1.80;;;0.93;;
28988;SDS011;16089;59.952;10.818;2023-05-24T03:51:07;1.15;;;0.73;;
28988;SDS011;16089;59.952;10.818;2023-05-24T03:53:33;3.08;;;0.90;;
28988;SDS011;16089;59.952;10.818;2023-05-24T03:56:00;1.63;;;0.80;;
28988;SDS011;16089;59.952;10.818;2023-05-24T03:58:26;1.90;;;0.95;;
28988;SDS011;16089;59.952;10.818;2023-05-24T04:00:52;1.63;;;0.88;;
28988;SDS011;16089;59.952;10.818;2023-05-24T04:03:20;1.85;;;1.00;;
28988;SDS011;16089;59.952;10.818;2023-05-24T04:05:46;2.17;;;0.95;;
28988;SDS011;16089;59.952;10.818;2023-05-24T04:08:13;1.52;;;0.90;;
28988;SDS011;16089;59.952;10.818;2023-05-24T04:10:40;2.08;;;0.90;;
28988;SDS011;16089;59.952;10.818;2023-05-24T04:13:06;1.58;;;0.80;;
28988;SDS011;16089;59.952;10.818;2023-05-24T04:15:33;2.83;;;0.90;;
28988;SDS011;16089;59.952;10.818;2023-05-24T04:17:59;1.88;;;0.88;;
28988;SDS011;16089;59.952;10.818;2023-05-24T04:20:28;1.40;;;0.80;;
28988;SDS011;16089;59.952;10.818;2023-05-24T04:22:55;2.00;;;0.90;;
28988;SDS011;16089;59.952;10.818;2023-05-24T04:25:21;1.80;;;0.90;;
28988;SDS011;16089;59.952;10.818;2023-05-24T04:27:48;1.45;;;0.80;;
28988;SDS011;16089;59.952;10.818;2023-05-24T04:30:14;1.58;;;0.80;;
28988;SDS011;16089;59.952;10.818;2023-05-24T04:32:41;2.30;;;0.90;;
28988;SDS011;16089;59.952;10.818;2023-05-24T04:35:08;2.67;;;0.80;;
28988;SDS011;16089;59.952;10.818;2023-05-24T04:37:36;1.95;;;1.02;;
28988;SDS011;16089;59.952;10.818;2023-05-24T04:40:04;3.13;;;1.23;;
28988;SDS011;16089;59.952;10.818;2023-05-24T04:42:31;1.60;;;1.00;;
28988;SDS011;16089;59.952;10.818;2023-05-24T04:44:58;2.25;;;1.20;;
28988;SDS011;16089;59.952;10.818;2023-05-24T04:47:24;3.38;;;1.10;;
28988;SDS011;16089;59.952;10.818;2023-05-24T04:49:51;1.88;;;1.00;;
28988;SDS011;16089;59.952;10.818;2023-05-24T04:52:17;5.57;;;1.20;;
28988;SDS011;16089;59.952;10.818;2023-05-24T04:54:45;3.33;;;1.02;;
28988;SDS011;16089;59.952;10.818;2023-05-24T04:57:11;2.70;;;1.10;;
28988;SDS011;16089;59.952;10.818;2023-05-24T04:59:37;1.90;;;0.90;;
28988;SDS011;16089;59.952;10.818;2023-05-24T05:02:04;4.60;;;0.98;;
28988;SDS011;16089;59.952;10.818;2023-05-24T05:04:30;5.00;;;1.00;;
28988;SDS011;16089;59.952;10.818;2023-05-24T05:06:56;2.33;;;1.23;;
28988;SDS011;16089;59.952;10.818;2023-05-24T05:09:23;4.07;;;1.40;;
28988;SDS011;16089;59.952;10.818;2023-05-24T05:11:50;3.00;;;1.23;;
28988;SDS011;16089;59.952;10.818;2023-05-24T05:14:17;2.10;;;1.13;;
28988;SDS011;16089;59.952;10.818;2023-05-24T05:16:43;3.75;;;1.10;;
28988;SDS011;16089;59.952;10.818;2023-05-24T05:19:10;4.93;;;1.58;;
28988;SDS011;16089;59.952;10.818;2023-05-24T05:21:36;4.00;;;1.40;;
28988;SDS011;16089;59.952;10.818;2023-05-24T05:24:03;3.42;;;1.40;;
28988;SDS011;16089;59.952;10.818;2023-05-24T05:26:30;4.85;;;1.50;;
28988;SDS011;16089;59.952;10.818;2023-05-24T05:28:58;3.75;;;1.33;;
28988;SDS011;16089;59.952;10.818;2023-05-24T05:31:24;3.67;;;1.50;;
28988;SDS011;16089;59.952;10.818;2023-05-24T05:33:50;2.58;;;1.33;;
28988;SDS011;16089;59.952;10.818;2023-05-24T05:36:17;2.60;;;1.20;;
28988;SDS011;16089;59.952;10.818;2023-05-24T05:38:43;4.10;;;1.30;;
28988;SDS011;16089;59.952;10.818;2023-05-24T05:41:10;4.93;;;1.30;;
28988;SDS011;16089;59.952;10.818;2023-05-24T05:43:37;4.15;;;1.50;;
28988;SDS011;16089;59.952;10.818;2023-05-24T05:46:05;6.88;;;1.30;;
28988;SDS011;16089;59.952;10.818;2023-05-24T05:48:31;3.90;;;1.02;;
28988;SDS011;16089;59.952;10.818;2023-05-24T05:50:58;8.13;;;1.23;;
28988;SDS011;16089;59.952;10.818;2023-05-24T05:53:24;5.25;;;1.00;;
28988;SDS011;16089;59.952;10.818;2023-05-24T05:55:50;2.78;;;0.90;;
28988;SDS011;16089;59.952;10.818;2023-05-24T05:58:16;4.32;;;1.40;;
28988;SDS011;16089;59.952;10.818;2023-05-24T06:00:43;6.68;;;1.73;;
28988;SDS011;16089;59.952;10.818;2023-05-24T06:03:11;3.25;;;1.50;;
28988;SDS011;16089;59.952;10.818;2023-05-24T06:05:37;6.53;;;1.60;;
28988;SDS011;16089;59.952;10.818;2023-05-24T06:08:03;6.80;;;1.38;;
28988;SDS011;16089;59.952;10.818;2023-05-24T06:10:30;6.85;;;3.22;;
28988;SDS011;16089;59.952;10.818;2023-05-24T06:12:56;6.85;;;3.53;;
28988;SDS011;16089;59.952;10.818;2023-05-24T06:15:22;6.75;;;2.95;;
28988;SDS011;16089;59.952;10.818;2023-05-24T06:17:49;3.72;;;1.80;;
28988;SDS011;16089;59.952;10.818;2023-05-24T06:20:17;4.50;;;1.80;;
28988;SDS011;16089;59.952;10.818;2023-05-24T06:22:43;6.05;;;1.70;;
28988;SDS011;16089;59.952;10.818;2023-05-24T06:25:10;3.47;;;1.60;;
28988;SDS011;16089;59.952;10.818;2023-05-24T06:27:38;6.60;;;1.83;;
28988;SDS011;16089;59.952;10.818;2023-05-24T06:30:06;3.60;;;1.67;;
28988;SDS011;16089;59.952;10.818;2023-05-24T06:32:32;4.93;;;1.83;;
28988;SDS011;16089;59.952;10.818;2023-05-24T06:34:59;9.30;;;2.00;;
28988;SDS011;16089;59.952;10.818;2023-05-24T06:37:26;6.60;;;2.10;;
28988;SDS011;16089;59.952;10.818;2023-05-24T06:39:55;11.30;;;1.90;;
28988;SDS011;16089;59.952;10.818;2023-05-24T06:42:21;9.80;;;2.22;;
28988;SDS011;16089;59.952;10.818;2023-05-24T06:44:47;4.93;;;1.90;;
28988;SDS011;16089;59.952;10.818;2023-05-24T06:47:14;6.25;;;2.10;;
28988;SDS011;16089;59.952;10.818;2023-05-24T06:49:40;5.75;;;2.00;;
28988;SDS011;16089;59.952;10.818;2023-05-24T06:52:06;5.07;;;1.63;;
28988;SDS011;16089;59.952;10.818;2023-05-24T06:54:34;4.15;;;1.60;;
28988;SDS011;16089;59.952;10.818;2023-05-24T06:57:01;5.70;;;2.28;;
28988;SDS011;16089;59.952;10.818;2023-05-24T06:59:27;5.07;;;1.92;;
28988;SDS011;16089;59.952;10.818;2023-05-24T07:01:54;5.18;;;1.80;;
28988;SDS011;16089;59.952;10.818;2023-05-24T07:04:21;4.03;;;1.63;;
28988;SDS011;16089;59.952;10.818;2023-05-24T07:06:48;7.80;;;2.00;;
28988;SDS011;16089;59.952;10.818;2023-05-24T07:09:14;8.20;;;1.55;;
28988;SDS011;16089;59.952;10.818;2023-05-24T07:11:42;6.82;;;1.73;;
28988;SDS011;16089;59.952;10.818;2023-05-24T07:14:08;8.07;;;1.77;;
28988;SDS011;16089;59.952;10.818;2023-05-24T07:16:35;3.40;;;1.23;;
28988;SDS011;16089;59.952;10.818;2023-05-24T07:19:01;4.28;;;1.83;;
28988;SDS011;16089;59.952;10.818;2023-05-24T07:21:27;4.30;;;1.50;;
28988;SDS011;16089;59.952;10.818;2023-05-24T07:23:54;11.82;;;2.15;;
28988;SDS011;16089;59.952;10.818;2023-05-24T07:26:21;5.22;;;1.33;;
28988;SDS011;16089;59.952;10.818;2023-05-24T07:28:49;3.92;;;1.10;;
28988;SDS011;16089;59.952;10.818;2023-05-24T07:31:15;4.68;;;1.10;;
28988;SDS011;16089;59.952;10.818;2023-05-24T07:33:41;4.70;;;0.98;;
28988;SDS011;16089;59.952;10.818;2023-05-24T07:36:08;4.47;;;1.10;;
28988;SDS011;16089;59.952;10.818;2023-05-24T07:38:34;2.28;;;0.93;;
28988;SDS011;16089;59.952;10.818;2023-05-24T07:41:01;2.05;;;0.88;;
28988;SDS011;16089;59.952;10.818;2023-05-24T07:43:28;4.20;;;1.08;;
28988;SDS011;16089;59.952;10.818;2023-05-24T07:45:56;6.88;;;1.10;;
28988;SDS011;16089;59.952;10.818;2023-05-24T07:48:22;2.55;;;1.10;;
28988;SDS011;16089;59.952;10.818;2023-05-24T07:50:50;3.70;;;2.10;;
28988;SDS011;16089;59.952;10.818;2023-05-24T07:53:16;4.78;;;1.38;;
28988;SDS011;16089;59.952;10.818;2023-05-24T07:55:43;3.72;;;1.00;;
28988;SDS011;16089;59.952;10.818;2023-05-24T07:58:10;3.30;;;1.30;;
28988;SDS011;16089;59.952;10.818;2023-05-24T08:00:36;3.88;;;1.48;;
28988;SDS011;16089;59.952;10.818;2023-05-24T08:03:04;3.22;;;1.27;;
28988;SDS011;16089;59.952;10.818;2023-05-24T08:05:31;3.67;;;1.20;;
28988;SDS011;16089;59.952;10.818;2023-05-24T08:07:57;7.63;;;1.33;;
28988;SDS011;16089;59.952;10.818;2023-05-24T08:10:24;2.45;;;1.00;;
28988;SDS011;16089;59.952;10.818;2023-05-24T08:12:51;2.55;;;1.10;;
28988;SDS011;16089;59.952;10.818;2023-05-24T08:15:20;2.90;;;1.10;;
28988;SDS011;16089;59.952;10.818;2023-05-24T08:17:46;3.00;;;1.10;;
28988;SDS011;16089;59.952;10.818;2023-05-24T08:20:14;2.47;;;1.17;;
28988;SDS011;16089;59.952;10.818;2023-05-24T08:22:41;4.35;;;1.30;;
28988;SDS011;16089;59.952;10.818;2023-05-24T08:25:08;2.45;;;1.00;;
28988;SDS011;16089;59.952;10.818;2023-05-24T08:27:34;2.78;;;1.27;;
28988;SDS011;16089;59.952;10.818;2023-05-24T08:30:01;3.25;;;1.65;;
28988;SDS011;16089;59.952;10.818;2023-05-24T08:32:28;3.20;;;1.67;;
28988;SDS011;16089;59.952;10.818;2023-05-24T08:34:54;3.05;;;1.52;;
28988;SDS011;16089;59.952;10.818;2023-05-24T08:37:22;8.18;;;1.67;;
28988;SDS011;16089;59.952;10.818;2023-05-24T08:39:49;3.00;;;1.00;;
28988;SDS011;16089;59.952;10.818;2023-05-24T08:42:15;5.15;;;1.30;;
28988;SDS011;16089;59.952;10.818;2023-05-24T08:44:45;4.18;;;1.40;;
28988;SDS011;16089;59.952;10.818;2023-05-24T08:47:12;4.63;;;1.40;;
28988;SDS011;16089;59.952;10.818;2023-05-24T08:49:39;6.93;;;1.35;;
28988;SDS011;16089;59.952;10.818;2023-05-24T08:52:05;3.80;;;1.10;;
28988;SDS011;16089;59.952;10.818;2023-05-24T08:54:34;3.15;;;1.30;;
28988;SDS011;16089;59.952;10.818;2023-05-24T08:57:01;4.60;;;1.35;;
28988;SDS011;16089;59.952;10.818;2023-05-24T08:59:27;5.22;;;1.30;;
28988;SDS011;16089;59.952;10.818;2023-05-24T09:01:54;3.78;;;1.17;;
28988;SDS011;16089;59.952;10.818;2023-05-24T09:04:22;5.40;;;1.52;;
28988;SDS011;16089;59.952;10.818;2023-05-24T09:06:49;3.03;;;1.42;;
28988;SDS011;16089;59.952;10.818;2023-05-24T09:09:17;5.32;;;1.50;;
28988;SDS011;16089;59.952;10.818;2023-05-24T09:11:45;4.78;;;1.58;;
28988;SDS011;16089;59.952;10.818;2023-05-24T09:14:12;4.80;;;1.63;;
28988;SDS011;16089;59.952;10.818;2023-05-24T09:16:38;4.82;;;1.83;;
28988;SDS011;16089;59.952;10.818;2023-05-24T09:19:05;5.68;;;1.95;;
28988;SDS011;16089;59.952;10.818;2023-05-24T09:21:32;6.10;;;1.50;;
28988;SDS011;16089;59.952;10.818;2023-05-24T09:23:58;3.55;;;1.40;;
28988;SDS011;16089;59.952;10.818;2023-05-24T09:26:26;3.80;;;1.60;;
28988;SDS011;16089;59.952;10.818;2023-05-24T09:28:54;2.83;;;1.63;;
28988;SDS011;16089;59.952;10.818;2023-05-24T09:31:24;3.50;;;1.70;;
28988;SDS011;16089;59.952;10.818;2023-05-24T09:33:56;4.45;;;2.10;;
28988;SDS011;16089;59.952;10.818;2023-05-24T09:36:23;5.40;;;1.70;;
28988;SDS011;16089;59.952;10.818;2023-05-24T09:38:50;5.30;;;1.90;;
28988;SDS011;16089;59.952;10.818;2023-05-24T09:41:27;4.15;;;1.92;;
28988;SDS011;16089;59.952;10.818;2023-05-24T09:43:55;5.40;;;2.47;;
28988;SDS011;16089;59.952;10.818;2023-05-24T09:46:22;3.38;;;1.60;;
28988;SDS011;16089;59.952;10.818;2023-05-24T09:48:57;4.10;;;1.95;;
28988;SDS011;16089;59.952;10.818;2023-05-24T09:51:24;4.85;;;1.67;;
28988;SDS011;16089;59.952;10.818;2023-05-24T09:53:50;6.05;;;2.15;;
28988;SDS011;16089;59.952;10.818;2023-05-24T09:56:21;3.33;;;1.70;;
28988;SDS011;16089;59.952;10.818;2023-05-24T09:58:48;5.95;;;1.60;;
28988;SDS011;16089;59.952;10.818;2023-05-24T10:01:16;5.40;;;2.00;;
28988;SDS011;16089;59.952;10.818;2023-05-24T10:03:51;6.15;;;2.03;;
28988;SDS011;16089;59.952;10.818;2023-05-24T10:06:17;3.58;;;1.73;;
28988;SDS011;16089;59.952;10.818;2023-05-24T10:08:44;4.97;;;1.80;;
28988;SDS011;16089;59.952;10.818;2023-05-24T10:11:12;5.18;;;1.95;;
28988;SDS011;16089;59.952;10.818;2023-05-24T10:13:38;4.72;;;2.00;;
28988;SDS011;16089;59.952;10.818;2023-05-24T10:16:05;5.88;;;2.00;;
28988;SDS011;16089;59.952;10.818;2023-05-24T10:18:33;4.43;;;1.70;;
28988;SDS011;16089;59.952;10.818;2023-05-24T10:21:00;5.10;;;1.73;;
28988;SDS011;16089;59.952;10.818;2023-05-24T10:23:29;4.90;;;1.70;;
28988;SDS011;16089;59.952;10.818;2023-05-24T10:25:58;3.40;;;1.83;;
28988;SDS011;16089;59.952;10.818;2023-05-24T10:28:27;4.45;;;1.95;;
28988;SDS011;16089;59.952;10.818;2023-05-24T10:30:58;6.95;;;2.05;;
28988;SDS011;16089;59.952;10.818;2023-05-24T10:33:26;6.13;;;1.90;;
28988;SDS011;16089;59.952;10.818;2023-05-24T10:35:54;5.18;;;2.22;;
28988;SDS011;16089;59.952;10.818;2023-05-24T10:38:21;6.00;;;1.83;;
28988;SDS011;16089;59.952;10.818;2023-05-24T10:40:47;8.50;;;2.03;;
28988;SDS011;16089;59.952;10.818;2023-05-24T10:43:14;7.60;;;2.10;;
28988;SDS011;16089;59.952;10.818;2023-05-24T10:45:41;4.88;;;1.60;;
28988;SDS011;16089;59.952;10.818;2023-05-24T10:48:08;3.60;;;1.67;;
28988;SDS011;16089;59.952;10.818;2023-05-24T10:50:56;4.75;;;1.90;;
28988;SDS011;16089;59.952;10.818;2023-05-24T10:53:26;2.88;;;1.65;;
28988;SDS011;16089;59.952;10.818;2023-05-24T10:55:53;2.95;;;1.48;;
28988;SDS011;16089;59.952;10.818;2023-05-24T10:58:21;4.25;;;1.77;;
28988;SDS011;16089;59.952;10.818;2023-05-24T11:00:50;5.53;;;1.73;;
28988;SDS011;16089;59.952;10.818;2023-05-24T11:03:17;6.55;;;1.88;;
28988;SDS011;16089;59.952;10.818;2023-05-24T11:05:49;3.03;;;1.88;;
28988;SDS011;16089;59.952;10.818;2023-05-24T11:08:21;3.58;;;2.00;;
28988;SDS011;16089;59.952;10.818;2023-05-24T11:10:47;3.08;;;1.60;;
28988;SDS011;16089;59.952;10.818;2023-05-24T11:13:14;3.85;;;1.95;;
28988;SDS011;16089;59.952;10.818;2023-05-24T11:15:47;4.88;;;1.67;;
28988;SDS011;16089;59.952;10.818;2023-05-24T11:18:14;3.58;;;1.95;;
28988;SDS011;16089;59.952;10.818;2023-05-24T11:20:41;4.60;;;1.80;;
28988;SDS011;16089;59.952;10.818;2023-05-24T11:23:08;3.13;;;1.60;;
28988;SDS011;16089;59.952;10.818;2023-05-24T11:25:36;9.63;;;2.35;;
28988;SDS011;16089;59.952;10.818;2023-05-24T11:28:05;8.90;;;1.98;;
28988;SDS011;16089;59.952;10.818;2023-05-24T11:30:31;5.57;;;1.63;;
28988;SDS011;16089;59.952;10.818;2023-05-24T11:32:58;6.25;;;2.00;;
28988;SDS011;16089;59.952;10.818;2023-05-24T11:35:25;4.15;;;1.90;;
28988;SDS011;16089;59.952;10.818;2023-05-24T11:37:53;7.70;;;2.10;;
28988;SDS011;16089;59.952;10.818;2023-05-24T11:40:20;5.78;;;1.92;;
28988;SDS011;16089;59.952;10.818;2023-05-24T11:42:48;3.75;;;1.73;;
28988;SDS011;16089;59.952;10.818;2023-05-24T11:45:14;5.07;;;1.90;;
28988;SDS011;16089;59.952;10.818;2023-05-24T11:47:42;6.63;;;2.25;;
28988;SDS011;16089;59.952;10.818;2023-05-24T11:50:09;5.55;;;1.98;;
28988;SDS011;16089;59.952;10.818;2023-05-24T11:52:37;6.82;;;1.80;;
28988;SDS011;16089;59.952;10.818;2023-05-24T11:55:04;4.65;;;1.98;;
28988;SDS011;16089;59.952;10.818;2023-05-24T11:57:35;4.72;;;2.10;;
28988;SDS011;16089;59.952;10.818;2023-05-24T12:00:05;4.80;;;1.98;;
28988;SDS011;16089;59.952;10.818;2023-05-24T12:02:35;4.43;;;2.15;;
28988;SDS011;16089;59.952;10.818;2023-05-24T12:05:05;5.43;;;1.90;;
28988;SDS011;16089;59.952;10.818;2023-05-24T12:07:33;6.40;;;2.03;;
28988;SDS011;16089;59.952;10.818;2023-05-24T12:10:00;7.32;;;2.13;;
28988;SDS011;16089;59.952;10.818;2023-05-24T12:12:28;4.30;;;2.10;;
28988;SDS011;16089;59.952;10.818;2023-05-24T12:14:54;7.38;;;1.98;;
28988;SDS011;16089;59.952;10.818;2023-05-24T12:17:22;6.25;;;2.13;;
28988;SDS011;16089;59.952;10.818;2023-05-24T12:19:49;5.82;;;2.38;;
28988;SDS011;16089;59.952;10.818;2023-05-24T12:22:15;4.03;;;2.20;;
28988;SDS011;16089;59.952;10.818;2023-05-24T12:24:42;5.50;;;2.10;;
28988;SDS011;16089;59.952;10.818;2023-05-24T12:27:09;4.97;;;2.30;;
28988;SDS011;16089;59.952;10.818;2023-05-24T12:29:36;4.53;;;2.35;;
28988;SDS011;16089;59.952;10.818;2023-05-24T12:32:04;6.80;;;1.90;;
28988;SDS011;16089;59.952;10.818;2023-05-24T12:34:38;5.75;;;2.30;;
28988;SDS011;16089;59.952;10.818;2023-05-24T12:37:06;7.80;;;1.98;;
28988;SDS011;16089;59.952;10.818;2023-05-24T12:39:34;4.20;;;1.88;;
28988;SDS011;16089;59.952;10.818;2023-05-24T12:42:01;7.65;;;2.50;;
28988;SDS011;16089;59.952;10.818;2023-05-24T12:44:28;8.02;;;2.00;;
28988;SDS011;16089;59.952;10.818;2023-05-24T12:46:55;4.85;;;1.75;;
28988;SDS011;16089;59.952;10.818;2023-05-24T12:49:22;6.40;;;2.17;;
28988;SDS011;16089;59.952;10.818;2023-05-24T12:51:50;10.95;;;2.10;;
28988;SDS011;16089;59.952;10.818;2023-05-24T12:54:17;7.63;;;2.13;;
28988;SDS011;16089;59.952;10.818;2023-05-24T12:56:44;7.57;;;1.92;;
28988;SDS011;16089;59.952;10.818;2023-05-24T12:59:10;10.27;;;1.77;;
28988;SDS011;16089;59.952;10.818;2023-05-24T13:01:37;6.90;;;1.83;;
28988;SDS011;16089;59.952;10.818;2023-05-24T13:04:03;5.00;;;1.60;;
28988;SDS011;16089;59.952;10.818;2023-05-24T13:06:29;8.25;;;2.40;;
28988;SDS011;16089;59.952;10.818;2023-05-24T13:08:57;5.70;;;2.17;;
28988;SDS011;16089;59.952;10.818;2023-05-24T13:11:23;8.73;;;1.88;;
28988;SDS011;16089;59.952;10.818;2023-05-24T13:13:51;4.07;;;1.80;;
28988;SDS011;16089;59.952;10.818;2023-05-24T13:16:18;7.28;;;1.98;;
28988;SDS011;16089;59.952;10.818;2023-05-24T13:18:44;7.57;;;2.10;;
28988;SDS011;16089;59.952;10.818;2023-05-24T13:21:11;10.73;;;4.22;;
28988;SDS011;16089;59.952;10.818;2023-05-24T13:23:37;7.10;;;2.20;;
28988;SDS011;16089;59.952;10.818;2023-05-24T13:26:05;7.93;;;2.20;;
28988;SDS011;16089;59.952;10.818;2023-05-24T13:28:33;10.15;;;4.70;;
28988;SDS011;16089;59.952;10.818;2023-05-24T13:30:59;24.48;;;14.43;;
28988;SDS011;16089;59.952;10.818;2023-05-24T13:33:25;26.70;;;16.85;;
28988;SDS011;16089;59.952;10.818;2023-05-24T13:35:52;10.45;;;4.13;;
28988;SDS011;16089;59.952;10.818;2023-05-24T13:38:21;6.38;;;2.03;;
28988;SDS011;16089;59.952;10.818;2023-05-24T13:40:47;6.70;;;2.30;;
28988;SDS011;16089;59.952;10.818;2023-05-24T13:43:15;11.27;;;2.05;;
28988;SDS011;16089;59.952;10.818;2023-05-24T13:45:42;5.82;;;2.28;;
28988;SDS011;16089;59.952;10.818;2023-05-24T13:48:09;9.60;;;2.03;;
28988;SDS011;16089;59.952;10.818;2023-05-24T13:50:35;7.35;;;2.17;;
28988;SDS011;16089;59.952;10.818;2023-05-24T13:53:02;5.75;;;1.90;;
28988;SDS011;16089;59.952;10.818;2023-05-24T13:55:29;9.80;;;1.98;;
28988;SDS011;16089;59.952;10.818;2023-05-24T13:57:56;6.68;;;1.83;;
28988;SDS011;16089;59.952;10.818;2023-05-24T14:00:24;5.10;;;2.08;;
28988;SDS011;16089;59.952;10.818;2023-05-24T14:02:50;4.68;;;2.03;;
28988;SDS011;16089;59.952;10.818;2023-05-24T14:05:17;8.18;;;2.00;;
28988;SDS011;16089;59.952;10.818;2023-05-24T14:07:43;14.82;;;2.45;;
28988;SDS011;16089;59.952;10.818;2023-05-24T14:10:10;9.48;;;2.10;;
28988;SDS011;16089;59.952;10.818;2023-05-24T14:12:36;10.05;;;2.10;;
28988;SDS011;16089;59.952;10.818;2023-05-24T14:15:03;4.70;;;2.10;;
28988;SDS011;16089;59.952;10.818;2023-05-24T14:17:31;5.72;;;2.10;;
28988;SDS011;16089;59.952;10.818;2023-05-24T14:19:58;8.85;;;2.35;;
28988;SDS011;16089;59.952;10.818;2023-05-24T14:22:24;14.73;;;2.20;;
28988;SDS011;16089;59.952;10.818;2023-05-24T14:24:53;10.63;;;2.10;;
28988;SDS011;16089;59.952;10.818;2023-05-24T14:27:19;7.80;;;2.10;;
28988;SDS011;16089;59.952;10.818;2023-05-24T14:29:46;6.97;;;1.88;;
28988;SDS011;16089;59.952;10.818;2023-05-24T14:32:12;6.50;;;1.98;;
28988;SDS011;16089;59.952;10.818;2023-05-24T14:34:42;6.05;;;2.00;;